Neotsu, Oregon
Current Conditions -  °F | °C
As of 8:35 PM on Thursday 18 Dec 2014 (Local Time) from KONP Reporting Station
Moderate Rain Moderate Rain  
Wind Chill: 50°   Ceiling: 1400
Heat Index: 50°   Visibility: 5mi
Dew Point: 50°   Wind: 7mph
Humidity: 100%   Direction: 230°SW
Pressure: 29.84"   Gusts: NA
Location:  45°N, 123.98°W
Report Text: KONP 190435Z AUTO 23006KT 5SM RA SCT010 BKN014 OVC040 10/10 A2984 RMK AO2 P0003
Loading
Personal Weather Stations






























Interactive Weather Map New forecast layout! Learn more

10-Day Weather Forecast

Advertisements
Track Severe Weather on mobile